Saint Thomas, ND (58276)

5:47 PM CDT on August 30, 2015 (GMT -0500)
Hoople nd | | Change Station
CLOSE
Current Station
Personal Weather Station
Location: Hoople, ND
Elevation: 870 ft
Nearby Weather Stations

Elev 870 ft 48.52 °N, 97.62 °W | Updated 12 minutes ago

Clear
Clear
86.6 °F
Feels Like 91 °F
N
6.0
Wind Variable Wind from WNW
Gusts 10.0 mph

Today
High -- | Low -- °F
--% Chance of Precip.
Yesterday
High -- | Low -- °F
Precip. -- in
6:43 AM 8:16 PM
Full, 98% visible
Pressure 29.63 in
Visibility 9.0 miles
Clouds Clear
Heat Index 91 °F
Dew Point 69 °F
Humidity 56%
Rainfall 0.01 in
Snow Depth Not available.
UV 2 out of 12
Pollen 11.70 out of 12
Air Quality Not available.
Flu Activity Not available.
METAR K2C8 302235Z AUTO 16010G17KT 9SM CLR 31/21 A2963 RMK AO2
Pressure 29.63 in
Visibility 9.0 miles
Clouds Clear
Heat Index 91 °F
Dew Point 69 °F
Humidity 56%
Rainfall 0.01 in
Snow Depth Not available.
UV 2 out of 12
Pollen 11.70 out of 12
Air Quality Not available.
Flu Activity Not available.
METAR K2C8 302235Z AUTO 16010G17KT 9SM CLR 31/21 A2963 RMK AO2

10-Day Weather Forecast

×

Almanac

Astronomy

Aug. 30, 2015 Rise Set
Actual Time
Civil Twilight
Nautical Twilight
Astronomical Twilight
Moon
Length of Visible Light
Length of Day
Tomorrow will be .
, % of the Moon is Illuminated

Today's Extremes

State Highs State Lows

Community

WunderPhotos

Upload Photos

1,851,075 photos uploaded!

WunderBlogs® & News

Nearby

Air Quality

  Air Quality AQ Index Pollutant
Not available.

Snow Depth

Station Depth Elevation

Earthquake Activity

City Distance Mag. Time & Date
Minimum magnitude displayed is 2.5.

Coastal Water Temperatures

Place Temperature

Stations

Nearby Weather Stations

Station Location Temp. Windchill Dew Point Humidity Wind Precip. Elev Updated Type